createdAt,value
2022-10-22T00:02:12.110Z,14.87
2022-10-22T00:07:14.188Z,14.67
2022-10-22T00:12:16.111Z,14.61
2022-10-22T00:17:17.593Z,14.46
2022-10-22T00:22:18.999Z,14.28
2022-10-22T00:27:20.389Z,14.35
2022-10-22T00:32:22.107Z,14.37
2022-10-22T00:37:23.546Z,14.32
2022-10-22T00:42:27.363Z,14.29
2022-10-22T00:47:35.217Z,14.30
2022-10-22T00:52:36.664Z,14.24
2022-10-22T00:57:38.226Z,14.23
2022-10-22T01:02:39.824Z,14.29
2022-10-22T01:07:45.178Z,14.34
2022-10-22T01:13:22.011Z,14.29
2022-10-22T01:18:38.627Z,14.33
2022-10-22T01:23:59.772Z,14.33
2022-10-22T01:29:13.124Z,14.33
2022-10-22T01:39:49.439Z,14.34
2022-10-22T01:44:50.821Z,14.44
2022-10-22T01:50:14.362Z,14.44
2022-10-22T01:55:41.812Z,14.58
2022-10-22T02:00:50.527Z,14.47
2022-10-22T02:05:56.719Z,14.45
2022-10-22T02:10:59.287Z,14.32
2022-10-22T02:16:01.794Z,14.23
2022-10-22T02:21:03.691Z,14.08
2022-10-22T02:26:32.559Z,14.18
2022-10-22T02:31:39.021Z,14.23
2022-10-22T02:36:46.667Z,14.15
2022-10-22T02:41:51.345Z,14.16
2022-10-22T02:46:52.777Z,14.19
2022-10-22T02:51:54.210Z,14.25
2022-10-22T03:02:19.470Z,14.24
2022-10-22T03:07:20.896Z,14.28
2022-10-22T03:12:22.527Z,14.17
2022-10-22T03:17:24.324Z,14.14
2022-10-22T03:22:29.251Z,14.12
2022-10-22T03:27:30.658Z,14.20
2022-10-22T03:32:32.043Z,14.24
2022-10-22T03:37:34.473Z,14.15
2022-10-22T03:42:35.878Z,14.03
2022-10-22T03:47:37.626Z,14.02
2022-10-22T03:52:40.008Z,14.10
2022-10-22T04:03:04.894Z,14.12
2022-10-22T04:08:06.401Z,14.15
2022-10-22T04:13:07.764Z,14.18
2022-10-22T04:18:09.152Z,14.13
2022-10-22T04:23:10.669Z,14.10
2022-10-22T04:28:12.059Z,14.05
2022-10-22T04:33:13.436Z,14.02
2022-10-22T04:43:39.288Z,13.98
2022-10-22T04:48:42.120Z,13.99
2022-10-22T04:53:44.025Z,13.85
2022-10-22T04:58:45.487Z,13.87
2022-10-22T05:03:48.698Z,13.95
2022-10-22T05:08:55.683Z,13.93
2022-10-22T05:13:58.682Z,13.96
2022-10-22T05:19:01.892Z,13.95
2022-10-22T05:24:03.434Z,13.99
2022-10-22T05:29:04.856Z,14.01
2022-10-22T05:34:06.296Z,13.99
2022-10-22T05:39:07.803Z,13.97
2022-10-22T05:44:11.919Z,14.00
2022-10-22T05:49:15.317Z,13.98
2022-10-22T05:54:19.110Z,14.04
2022-10-22T05:59:20.485Z,13.99
2022-10-22T06:04:21.906Z,13.98
2022-10-22T06:09:30.462Z,13.94
2022-10-22T06:14:31.930Z,14.00
2022-10-22T06:19:33.353Z,14.07
2022-10-22T06:24:34.761Z,14.13
2022-10-22T06:29:36.158Z,14.12
2022-10-22T06:34:37.584Z,14.18
2022-10-22T06:39:39.158Z,14.18
2022-10-22T06:44:40.571Z,14.11
2022-10-22T06:49:41.964Z,14.08
2022-10-22T06:54:43.345Z,14.09
2022-10-22T06:59:46.383Z,14.23
2022-10-22T07:04:48.207Z,14.25
2022-10-22T07:09:51.359Z,14.29
2022-10-22T07:14:52.969Z,14.33
2022-10-22T07:19:54.352Z,14.47
2022-10-22T07:24:55.736Z,14.46
2022-10-22T07:29:57.186Z,14.56
2022-10-22T07:34:58.588Z,14.48
2022-10-22T07:40:02.996Z,14.53
2022-10-22T07:45:06.091Z,14.65
2022-10-22T07:50:07.817Z,14.77
2022-10-22T07:55:09.534Z,14.87
2022-10-22T08:00:11.464Z,14.98
2022-10-22T08:05:15.756Z,15.12
2022-10-22T08:10:17.358Z,15.30
2022-10-22T08:15:18.872Z,15.58
2022-10-22T08:20:20.363Z,15.71
2022-10-22T08:25:21.801Z,15.83
2022-10-22T08:30:23.224Z,16.12
2022-10-22T08:35:24.787Z,16.41
2022-10-22T08:40:37.509Z,16.72
2022-10-22T08:45:49.659Z,16.92
2022-10-22T08:50:54.607Z,16.97
2022-10-22T08:55:57.096Z,16.94
2022-10-22T09:01:19.167Z,16.94
2022-10-22T09:06:24.529Z,17.16
2022-10-22T09:11:35.510Z,17.44
2022-10-22T09:16:53.151Z,17.63
2022-10-22T09:22:19.574Z,17.90
2022-10-22T09:27:27.935Z,18.05
2022-10-22T09:32:29.339Z,18.19
2022-10-22T09:37:30.788Z,18.35
2022-10-22T09:42:32.199Z,18.52
2022-10-22T09:48:00.436Z,18.74
2022-10-22T09:53:31.698Z,18.90
2022-10-22T09:58:43.432Z,19.22
2022-10-22T10:03:44.870Z,19.52
2022-10-22T10:08:46.567Z,19.82
2022-10-22T10:14:15.573Z,20.11
2022-10-22T10:19:34.101Z,20.55
2022-10-22T10:24:53.750Z,21.15
2022-10-22T10:30:16.721Z,22.16
2022-10-22T10:35:41.342Z,23.89
2022-10-22T10:40:49.940Z,25.64
2022-10-22T10:46:14.525Z,26.19
2022-10-22T10:51:27.630Z,25.12
2022-10-22T10:56:44.579Z,24.27
2022-10-22T11:01:54.618Z,24.52
2022-10-22T11:07:10.762Z,26.75
2022-10-22T11:12:25.931Z,29.58
2022-10-22T11:17:39.268Z,31.62
2022-10-22T11:22:50.474Z,32.93
2022-10-22T11:28:32.209Z,33.81
2022-10-22T11:33:45.988Z,34.16
2022-10-22T11:38:47.626Z,34.65
2022-10-22T11:43:54.907Z,35.09
2022-10-22T11:49:14.680Z,34.93
2022-10-22T11:54:35.972Z,35.84
2022-10-22T11:59:48.225Z,36.08
2022-10-22T12:04:49.913Z,36.08
2022-10-22T12:14:57.839Z,36.29
2022-10-22T12:20:07.456Z,36.41
2022-10-22T12:25:22.386Z,35.98
2022-10-22T12:30:24.997Z,36.31
2022-10-22T12:35:29.076Z,36.14
2022-10-22T12:40:34.532Z,36.35
2022-10-22T12:45:37.689Z,36.06
2022-10-22T12:50:45.158Z,35.80
2022-10-22T12:55:49.789Z,35.83
2022-10-22T13:00:55.839Z,35.31
2022-10-22T13:06:09.560Z,34.95
2022-10-22T13:11:11.947Z,34.43
2022-10-22T13:16:22.351Z,34.10
2022-10-22T13:21:33.640Z,34.04
2022-10-22T13:26:37.149Z,34.34
2022-10-22T13:31:46.885Z,33.94
2022-10-22T13:36:49.026Z,32.64
2022-10-22T13:41:51.473Z,32.08
2022-10-22T13:46:52.929Z,31.52
2022-10-22T13:51:54.327Z,30.69
2022-10-22T13:56:55.714Z,30.13
2022-10-22T14:01:57.142Z,29.72
2022-10-22T14:07:01.272Z,29.22
2022-10-22T14:12:13.067Z,28.84
2022-10-22T14:17:16.423Z,28.58
2022-10-22T14:22:19.056Z,27.87
2022-10-22T14:27:20.474Z,26.90
2022-10-22T14:32:21.907Z,26.12
2022-10-22T14:37:23.301Z,25.36
2022-10-22T14:42:25.900Z,24.91
2022-10-22T14:47:27.306Z,24.67
2022-10-22T14:52:28.713Z,24.34
2022-10-22T14:57:30.122Z,24.10
2022-10-22T15:02:31.772Z,23.81
2022-10-22T15:07:33.262Z,23.70
2022-10-22T15:12:34.851Z,23.61
2022-10-22T15:17:36.272Z,23.54
2022-10-22T15:22:37.687Z,23.43
2022-10-22T15:27:39.465Z,23.25
2022-10-22T15:32:41.145Z,23.21
2022-10-22T15:37:42.802Z,22.91
2022-10-22T15:42:44.253Z,22.37
2022-10-22T15:47:47.620Z,21.76
2022-10-22T15:52:49.532Z,21.34
2022-10-22T15:57:54.269Z,20.99
2022-10-22T16:02:55.767Z,20.62
2022-10-22T16:07:57.165Z,20.40
2022-10-22T16:12:58.561Z,20.08
2022-10-22T16:17:59.945Z,19.74
2022-10-22T16:23:01.375Z,19.44
2022-10-22T16:28:02.820Z,19.08
2022-10-22T16:33:06.526Z,18.82
2022-10-22T16:38:09.645Z,18.60
2022-10-22T16:43:11.079Z,18.54
2022-10-22T16:48:12.490Z,18.36
2022-10-22T16:53:13.895Z,18.35
2022-10-22T16:58:15.309Z,18.23
2022-10-22T17:03:16.794Z,18.02
2022-10-22T17:08:18.313Z,17.81
2022-10-22T17:13:19.709Z,17.77
2022-10-22T17:18:21.090Z,17.73
2022-10-22T17:23:22.514Z,17.52
2022-10-22T17:28:23.955Z,17.36
2022-10-22T17:33:25.347Z,17.28
2022-10-22T17:38:27.853Z,17.25
2022-10-22T17:43:29.289Z,17.24
2022-10-22T17:48:30.691Z,17.02
2022-10-22T17:53:32.127Z,17.05
2022-10-22T17:58:33.561Z,16.93
2022-10-22T18:03:35.154Z,16.74
2022-10-22T18:08:36.715Z,16.54
2022-10-22T18:13:38.612Z,16.31
2022-10-22T18:18:40.048Z,16.25
2022-10-22T18:23:41.544Z,16.25
2022-10-22T18:28:42.961Z,16.22
2022-10-22T18:33:44.584Z,16.09
2022-10-22T18:38:54.300Z,15.94
2022-10-22T18:43:58.402Z,15.68
2022-10-22T18:49:00.011Z,15.83
2022-10-22T18:54:11.279Z,15.72
2022-10-22T18:59:25.205Z,15.60
2022-10-22T19:04:28.162Z,15.52
2022-10-22T19:09:29.814Z,15.53
2022-10-22T19:14:31.816Z,15.30
2022-10-22T19:19:33.242Z,15.20
2022-10-22T19:24:34.643Z,15.22
2022-10-22T19:29:36.350Z,15.21
2022-10-22T19:34:37.842Z,15.08
2022-10-22T19:39:39.249Z,15.00
2022-10-22T19:44:40.768Z,14.85
2022-10-22T19:49:42.168Z,14.76
2022-10-22T19:54:43.608Z,14.80
2022-10-22T19:59:45.632Z,14.79
2022-10-22T20:04:49.874Z,14.59
2022-10-22T20:09:51.521Z,14.53
2022-10-22T20:14:52.944Z,14.51
2022-10-22T20:19:54.356Z,14.44
2022-10-22T20:24:55.755Z,14.47
2022-10-22T20:29:57.181Z,14.39
2022-10-22T20:34:58.607Z,14.32
2022-10-22T20:40:00.250Z,14.24
2022-10-22T20:45:01.664Z,14.16
2022-10-22T20:50:03.635Z,14.14
2022-10-22T20:55:05.580Z,14.03
2022-10-22T21:00:07.968Z,13.94
2022-10-22T21:05:09.423Z,13.78
2022-10-22T21:10:10.885Z,13.74
2022-10-22T21:15:12.837Z,13.85
2022-10-22T21:20:14.586Z,13.83
2022-10-22T21:25:16.057Z,13.76
2022-10-22T21:30:17.491Z,13.64
2022-10-22T21:35:18.881Z,13.67
2022-10-22T21:40:20.258Z,13.57
2022-10-22T21:45:22.567Z,13.57
2022-10-22T21:50:24.064Z,13.59
2022-10-22T21:55:25.569Z,13.67
2022-10-22T22:00:27.096Z,13.58
2022-10-22T22:05:28.899Z,13.48
2022-10-22T22:10:30.305Z,13.33
2022-10-22T22:15:31.754Z,13.24
2022-10-22T22:20:33.139Z,13.18
2022-10-22T22:25:34.560Z,13.13
2022-10-22T22:30:35.980Z,12.98
2022-10-22T22:40:44.043Z,13.01
2022-10-22T22:45:45.448Z,13.04
2022-10-22T22:50:46.892Z,12.94
2022-10-22T22:55:48.505Z,12.82
2022-10-22T23:00:49.917Z,12.87
2022-10-22T23:05:51.342Z,12.75
2022-10-22T23:10:52.745Z,12.75
2022-10-22T23:15:54.139Z,12.46
2022-10-22T23:20:55.539Z,12.46
2022-10-22T23:31:04.293Z,12.32
2022-10-22T23:36:05.945Z,12.24
2022-10-22T23:41:08.086Z,12.20
2022-10-22T23:46:11.591Z,12.28
2022-10-22T23:51:15.062Z,12.20
2022-10-22T23:56:17.984Z,12.14
